Time;durP1;ratioP1;P1;durP2;ratioP2;P2;SDS_P1;SDS_P2;PMS_P1;PMS_P2;Temp;Humidity;BMP_temperature;BMP_pressure;BME280_temperature;BME280_humidity;BME280_pressure;Samples;Min_cycle;Max_cycle;Signal;HPM_P1;HPM_P2
2022/04/21 00:01:16;;;;;;;3.13;2.83;;;;;;;3.61;72.12;94471.78;2617640;54;20174;-80
2022/04/21 00:03:44;;;;;;;1.83;1.83;;;;;;;4.23;71.76;94449.94;2616361;47;20216;-79
2022/04/21 00:06:13;;;;;;;3.10;2.07;;;;;;;4.71;68.97;94461.47;2616598;47;20665;-79
2022/04/21 00:08:42;;;;;;;3.23;3.13;;;;;;;6.11;75.78;94434.53;2616759;39;20582;-79
2022/04/21 00:11:11;;;;;;;2.07;1.77;;;;;;;6.70;62.57;94468.78;2617173;54;20153;-79
2022/04/21 00:13:43;;;;;;;2.87;2.67;;;;;;;7.63;70.73;94478.34;2621657;54;20176;-78
2022/04/21 00:16:12;;;;;;;3.67;3.37;;;;;;;7.71;61.68;94473.03;2617493;54;20159;-79
2022/04/21 00:18:42;;;;;;;4.47;4.10;;;;;;;5.92;58.27;94387.97;2616491;54;20153;-80
2022/04/21 00:21:11;;;;;;;3.30;3.10;;;;;;;5.85;63.22;94425.59;2616865;47;20153;-79
2022/04/21 00:23:37;;;;;;;2.37;2.27;;;;;;;6.25;61.85;94469.63;2616667;54;20221;-79
2022/04/21 00:26:06;;;;;;;3.53;3.13;;;;;;;5.97;61.31;94471.16;2616484;47;20157;-79
2022/04/21 00:28:36;;;;;;;2.20;1.83;;;;;;;5.63;63.94;94468.13;2616786;46;20160;-79
2022/04/21 00:31:10;;;;;;;3.83;3.43;;;;;;;5.58;66.58;94432.06;2617011;47;20193;-79
2022/04/21 00:33:39;;;;;;;5.70;3.17;;;;;;;5.39;67.12;94415.69;2616566;47;20176;-79
2022/04/21 00:36:08;;;;;;;8.27;3.50;;;;;;;5.79;63.20;94453.38;2618678;47;21548;-80
2022/04/21 00:38:37;;;;;;;8.10;2.50;;;;;;;6.86;70.08;94468.75;2618795;47;20157;-81
2022/04/21 00:41:06;;;;;;;4.83;3.43;;;;;;;6.35;59.58;94430.69;2617106;54;20150;-79
2022/04/21 00:43:36;;;;;;;1.83;1.77;;;;;;;5.10;61.77;94464.84;2617436;54;20165;-80
2022/04/21 00:46:11;;;;;;;2.77;2.53;;;;;;;3.82;66.83;94443.53;2616327;47;20173;-79
2022/04/21 00:48:39;;;;;;;2.10;2.00;;;;;;;4.77;64.71;94470.94;2616690;47;20148;-79
2022/04/21 00:51:08;;;;;;;1.50;1.50;;;;;;;4.15;64.55;94427.06;2618228;54;20168;-81
2022/04/21 00:53:40;;;;;;;2.13;2.03;;;;;;;3.70;66.79;94482.06;2618009;54;20159;-78
2022/04/21 00:56:09;;;;;;;1.67;1.67;;;;;;;3.05;68.49;94431.59;2617347;47;20162;-79
2022/04/21 00:58:43;;;;;;;2.97;1.90;;;;;;;3.44;68.94;94468.06;2616575;47;20158;-79
2022/04/21 01:03:59;;;;;;;1.67;1.67;;;;;;;2.03;70.76;94369.13;2617241;47;20645;-81
2022/04/21 01:06:29;;;;;;;2.60;1.37;;;;;;;1.69;74.47;94462.72;2617396;47;20157;-80
2022/04/21 01:08:58;;;;;;;1.60;1.60;;;;;;;1.59;76.52;94425.81;2616375;47;20157;-80
2022/04/21 01:11:27;;;;;;;1.87;1.87;;;;;;;1.86;74.94;94464.44;2616829;47;20149;-81
2022/04/21 01:13:57;;;;;;;2.47;2.37;;;;;;;1.91;75.84;94440.28;2618079;47;20164;-82
2022/04/21 01:16:29;;;;;;;1.13;1.13;;;;;;;2.50;73.36;94436.84;2616543;54;20141;-81
2022/04/21 01:19:01;;;;;;;1.37;1.37;;;;;;;3.14;72.91;94444.00;2616085;47;20190;-81
2022/04/21 01:21:33;;;;;;;1.63;1.63;;;;;;;3.37;68.37;94345.19;2615891;54;20153;-81
2022/04/21 01:24:04;;;;;;;2.60;2.27;;;;;;;2.96;68.26;94375.81;2615866;47;20212;-80
2022/04/21 01:26:35;;;;;;;1.97;1.83;;;;;;;3.42;69.63;94420.34;2616079;54;20173;-80
2022/04/21 01:29:05;;;;;;;5.53;2.73;;;;;;;2.94;69.75;94435.19;2616176;54;20161;-79
2022/04/21 01:31:35;;;;;;;1.10;1.07;;;;;;;2.40;74.93;94410.38;2615858;54;20204;-79
2022/04/21 01:34:03;;;;;;;1.67;1.57;;;;;;;2.74;71.27;94376.00;2616029;47;20165;-80
2022/04/21 01:36:35;;;;;;;2.20;2.10;;;;;;;3.48;69.27;94411.56;2617879;54;20161;-80
2022/04/21 01:42:06;;;;;;;1.20;1.20;;;;;;;3.66;68.01;94336.97;2616007;47;20164;-80
2022/04/21 01:44:35;;;;;;;1.53;1.53;;;;;;;4.20;66.92;94400.00;2615890;47;20164;-79
2022/04/21 01:47:04;;;;;;;1.63;1.63;;;;;;;5.03;68.73;94414.66;2616323;39;20582;-81
2022/04/21 01:49:33;;;;;;;2.37;2.00;;;;;;;4.73;63.63;94386.56;2615755;54;20164;-80
2022/04/21 01:52:05;;;;;;;1.57;1.57;;;;;;;5.10;67.16;94424.81;2615728;47;20165;-80
2022/04/21 01:54:35;;;;;;;2.80;2.60;;;;;;;4.99;64.48;94407.50;2615896;47;20171;-80
2022/04/21 01:57:04;;;;;;;2.00;1.93;;;;;;;3.86;66.43;94416.44;2615297;54;20156;-79
2022/04/21 01:59:33;;;;;;;2.47;2.28;;;;;;;3.36;68.77;94430.50;2615279;47;20396;-81
2022/04/21 02:02:02;;;;;;;1.57;1.57;;;;;;;3.06;70.58;94354.00;2616111;47;20267;-81
2022/04/21 02:04:31;;;;;;;1.63;1.47;;;;;;;3.11;70.05;94390.00;2616022;54;20192;-81
2022/04/21 02:07:00;;;;;;;2.27;1.43;;;;;;;3.12;70.77;94411.03;2615869;47;20203;-81
2022/04/21 02:09:32;;;;;;;2.40;2.30;;;;;;;1.95;71.48;94300.88;2615749;47;20173;-80
2022/04/21 02:12:01;;;;;;;1.63;1.60;;;;;;;2.27;72.71;94343.94;2615897;47;20224;-81
2022/04/21 02:14:30;;;;;;;2.23;2.03;;;;;;;3.33;71.83;94414.94;2615891;47;21061;-81
2022/04/21 02:16:59;;;;;;;1.90;1.80;;;;;;;2.97;68.77;94288.50;2615829;47;20184;-80
2022/04/21 02:19:28;;;;;;;3.70;2.30;;;;;;;3.45;68.18;94382.00;2615648;47;20187;-80
2022/04/21 02:21:57;;;;;;;3.40;3.10;;;;;;;2.90;70.58;94381.06;2615081;47;20411;-80
2022/04/21 02:24:26;;;;;;;3.53;2.97;;;;;;;3.60;68.68;94397.50;2615778;47;20171;-80
2022/04/21 02:26:57;;;;;;;2.07;1.97;;;;;;;3.16;68.58;94376.94;2616745;47;20184;-80
2022/04/21 02:29:27;;;;;;;1.17;1.07;;;;;;;2.85;69.76;94369.66;2615818;47;20228;-80
2022/04/21 02:31:55;;;;;;;2.30;1.80;;;;;;;3.36;69.68;94389.25;2615733;54;20161;-82
2022/04/21 02:34:24;;;;;;;1.90;1.80;;;;;;;3.93;67.85;94386.69;2615684;46;20168;-80
2022/04/21 02:36:53;;;;;;;1.70;1.60;;;;;;;4.04;67.60;94410.34;2615423;47;20203;-81
2022/04/21 02:39:22;;;;;;;2.03;1.93;;;;;;;4.12;66.55;94410.78;2615268;54;20172;-80
2022/04/21 02:41:51;;;;;;;1.70;1.60;;;;;;;3.70;65.53;94330.81;2615491;54;20407;-80
2022/04/21 02:44:25;;;;;;;2.23;2.10;;;;;;;3.77;65.14;94313.72;2616169;54;20181;-82
2022/04/21 02:46:54;;;;;;;1.20;1.20;;;;;;;6.01;71.75;94417.94;2615696;54;20161;-80
2022/04/21 02:49:26;;;;;;;2.27;2.23;;;;;;;8.02;70.85;94415.72;2615588;47;20219;-81
2022/04/21 02:51:55;;;;;;;2.03;1.93;;;;;;;7.35;59.67;94347.59;2615946;47;20184;-80
2022/04/21 02:59:50;;;;;;;2.87;2.67;;;;;;;9.32;64.76;94374.41;2623378;47;20153;-80
2022/04/21 03:02:19;;;;;;;2.10;2.00;;;;;;;10.17;62.14;94410.97;2615958;47;20187;-80
2022/04/21 03:04:49;;;;;;;2.27;1.87;;;;;;;10.42;61.86;94421.66;2615729;47;20168;-80
2022/04/21 03:07:20;;;;;;;2.40;2.10;;;;;;;9.01;54.28;94420.72;2615726;47;20164;-81
2022/04/21 03:09:49;;;;;;;3.20;3.00;;;;;;;8.24;52.29;94423.56;2615998;47;20167;-81
2022/04/21 03:12:18;;;;;;;2.77;2.57;;;;;;;6.98;55.05;94388.34;2616746;54;20144;-81
2022/04/21 03:14:50;;;;;;;3.50;3.30;;;;;;;5.56;58.18;94342.06;2620187;47;20194;-81
2022/04/21 03:17:19;;;;;;;2.57;2.37;;;;;;;4.68;60.35;94320.38;2621209;47;20255;-81
2022/04/21 03:19:52;;;;;;;4.20;2.17;;;;;;;4.65;62.75;94398.09;2616980;47;20168;-80
2022/04/21 03:25:06;;;;;;;3.03;2.57;;;;;;;3.05;65.12;94339.28;2617461;47;20153;-81
2022/04/21 03:27:36;;;;;;;2.00;1.80;;;;;;;2.28;67.62;94303.50;2617339;54;20984;-80
2022/04/21 03:30:09;;;;;;;2.30;2.00;;;;;;;2.67;68.33;94393.78;2617111;54;20180;-81
2022/04/21 03:32:39;;;;;;;2.30;1.57;;;;;;;2.31;68.93;94383.31;2617825;54;20172;-81
2022/04/21 03:35:09;;;;;;;1.97;1.87;;;;;;;2.61;69.69;94393.44;2618312;47;20297;-81
2022/04/21 03:37:38;;;;;;;1.00;1.00;;;;;;;3.07;69.62;94403.75;2616940;47;20168;-81
2022/04/21 03:40:11;;;;;;;1.00;1.00;;;;;;;3.87;68.58;94411.56;2617460;54;20167;-81
2022/04/21 03:42:40;;;;;;;1.30;1.23;;;;;;;3.88;66.26;94338.13;2616564;47;20165;-81
2022/04/21 03:45:14;;;;;;;1.83;1.70;;;;;;;4.74;64.80;94399.25;2616573;47;20161;-81
2022/04/21 03:47:43;;;;;;;1.67;1.67;;;;;;;6.20;67.43;94408.94;2616336;47;20188;-82
2022/04/21 03:50:12;;;;;;;2.13;1.93;;;;;;;7.43;69.33;94326.09;2616221;54;20165;-82
2022/04/21 03:52:41;;;;;;;2.87;2.67;;;;;;;8.34;61.14;94421.13;2616696;39;20591;-80
2022/04/21 03:55:11;;;;;;;7.13;3.57;;;;;;;7.82;58.77;94410.03;2616553;47;20290;-80
2022/04/21 03:57:40;;;;;;;1.73;1.63;;;;;;;8.42;65.61;94348.81;2616877;39;20713;-80
2022/04/21 04:00:14;;;;;;;2.70;2.50;;;;;;;7.54;53.85;94405.38;2616536;54;21658;-80
2022/04/21 04:02:48;;;;;;;3.93;3.40;;;;;;;5.63;58.29;94360.66;2616536;47;20159;-81
2022/04/21 04:05:20;;;;;;;3.57;3.27;;;;;;;5.58;61.25;94409.59;2616561;47;20165;-80
2022/04/21 04:13:13;;;;;;;2.10;2.00;;;;;;;4.10;65.52;94360.94;2616820;39;20827;-81
2022/04/21 04:15:47;;;;;;;2.43;2.23;;;;;;;4.59;66.52;94369.03;2616089;47;20168;-80
2022/04/21 04:18:19;;;;;;;4.28;3.88;;;;;;;5.13;62.63;94407.47;2616233;54;20464;-80
2022/04/21 04:20:48;;;;;;;2.57;2.20;;;;;;;4.70;64.78;94368.16;2618094;46;20183;-81
2022/04/21 04:23:17;;;;;;;2.27;2.20;;;;;;;5.04;64.77;94371.22;2624344;47;20165;-81
2022/04/21 04:25:47;;;;;;;3.63;3.33;;;;;;;5.00;66.83;94321.94;2618547;47;20156;-80
2022/04/21 04:28:16;;;;;;;5.80;3.63;;;;;;;5.52;64.46;94344.69;2618365;47;20165;-81
2022/04/21 04:30:45;;;;;;;3.83;3.63;;;;;;;5.81;63.46;94398.00;2618621;47;20192;-81
2022/04/21 04:33:15;;;;;;;3.20;3.00;;;;;;;7.02;71.20;94405.41;2616730;47;20184;-80
2022/04/21 04:35:46;;;;;;;4.00;3.17;;;;;;;8.29;67.29;94403.31;2626039;54;20157;-81
2022/04/21 04:38:16;;;;;;;3.53;2.73;;;;;;;9.21;64.46;94398.78;2627762;47;20157;-81
2022/04/21 04:40:45;;;;;;;2.83;2.63;;;;;;;9.46;62.88;94355.78;2626706;54;20177;-82
2022/04/21 04:43:11;;;;;;;3.87;3.07;;;;;;;10.25;61.24;94400.63;2616184;54;20172;-81
2022/04/21 04:48:21;;;;;;;2.93;2.73;;;;;;;10.52;59.02;94401.44;2615863;47;20141;-81
2022/04/21 04:50:54;;;;;;;2.73;2.60;;;;;;;10.79;59.28;94414.22;2616300;47;20161;-82
2022/04/21 04:53:23;;;;;;;3.17;2.93;;;;;;;10.82;56.51;94421.34;2618950;39;20529;-81
2022/04/21 04:55:52;;;;;;;5.93;2.90;;;;;;;9.31;57.19;94418.88;2616879;54;20674;-82
2022/04/21 04:58:21;;;;;;;2.70;2.53;;;;;;;8.36;58.51;94410.66;2616846;47;20173;-81
2022/04/21 05:00:51;;;;;;;6.43;5.70;;;;;;;6.65;61.19;94416.50;2616722;47;20411;-81
2022/04/21 05:03:21;;;;;;;3.60;3.30;;;;;;;5.30;65.98;94392.84;2617110;46;20269;-81
2022/04/21 05:05:53;;;;;;;4.00;3.80;;;;;;;4.72;67.70;94359.13;2617463;47;20172;-81
2022/04/21 05:08:22;;;;;;;4.10;3.77;;;;;;;4.38;69.28;94316.06;2617366;47;20185;-81
2022/04/21 05:10:55;;;;;;;3.60;3.40;;;;;;;4.39;70.72;94337.88;2617676;47;20220;-82
2022/04/21 05:13:24;;;;;;;3.80;3.43;;;;;;;5.20;73.01;94388.81;2620587;54;20177;-82
2022/04/21 05:15:56;;;;;;;5.50;5.10;;;;;;;6.27;69.38;94413.47;2621675;39;20635;-82
2022/04/21 05:18:26;;;;;;;5.43;4.53;;;;;;;6.30;66.32;94420.63;2616532;47;20164;-82
2022/04/21 05:20:59;;;;;;;6.45;4.80;;;;;;;5.74;66.24;94435.59;2616692;54;20465;-82
2022/04/21 05:23:42;;;;;;;6.07;4.77;;;;;;;5.00;66.45;94338.78;2616882;54;20221;-82
2022/04/21 05:26:12;;;;;;;4.17;3.80;;;;;;;5.62;66.79;94437.84;2616994;39;20742;-80
2022/04/21 05:28:42;;;;;;;5.20;3.90;;;;;;;5.70;66.62;94438.25;2616105;47;20694;-81
2022/04/21 05:31:09;;;;;;;6.07;5.57;;;;;;;5.24;69.25;94367.28;2616573;54;20180;-82
2022/04/21 05:33:41;;;;;;;3.67;3.37;;;;;;;5.77;68.76;94391.47;2616880;54;20261;-82
2022/04/21 05:36:14;;;;;;;6.27;4.53;;;;;;;5.56;71.33;94356.13;2617034;54;20200;-82
2022/04/21 05:38:46;;;;;;;6.80;3.93;;;;;;;5.64;68.54;94328.38;2617251;47;20175;-82
2022/04/21 05:41:18;;;;;;;6.87;5.43;;;;;;;4.77;69.81;94442.16;2616727;46;20161;-82
2022/04/21 05:43:50;;;;;;;6.07;4.77;;;;;;;5.95;73.76;94440.84;2618156;47;20164;-84
2022/04/21 05:46:20;;;;;;;9.73;4.97;;;;;;;5.46;69.23;94347.97;2623605;47;20168;-82
2022/04/21 05:48:51;;;;;;;4.20;3.80;;;;;;;6.82;72.70;94420.75;2620492;47;20180;-82
2022/04/21 05:51:26;;;;;;;8.03;5.63;;;;;;;7.37;67.91;94449.09;2618590;54;20479;-82
2022/04/21 05:54:00;;;;;;;6.80;5.50;;;;;;;6.42;62.67;94331.16;2619321;39;20743;-82
2022/04/21 05:56:29;;;;;;;3.90;3.60;;;;;;;6.19;65.58;94340.00;2617145;54;20157;-82
2022/04/21 05:58:58;;;;;;;5.87;4.27;;;;;;;6.37;62.31;94354.84;2616857;47;20169;-83
2022/04/21 06:01:38;;;;;;;3.07;2.87;;;;;;;5.44;66.10;94434.19;2617598;47;20184;-84
2022/04/21 06:04:15;;;;;;;5.20;3.13;;;;;;;4.20;70.79;94423.16;2618419;54;20164;-85
2022/04/21 06:06:47;;;;;;;4.27;2.97;;;;;;;3.98;71.44;94421.97;2621345;54;20187;-83
2022/04/21 06:09:24;;;;;;;2.40;2.20;;;;;;;3.51;74.51;94385.88;2621532;47;20161;-84
2022/04/21 06:11:58;;;;;;;3.38;3.08;;;;;;;4.65;73.46;94366.50;2604214;39;20619;-79
2022/04/21 06:14:27;;;;;;;5.28;4.68;;;;;;;5.21;69.02;94404.31;2612532;54;20418;-81
2022/04/21 06:17:03;;;;;;;3.57;3.13;;;;;;;5.02;66.37;94284.09;2617052;39;20567;-87
2022/04/21 06:19:31;;;;;;;5.07;4.27;;;;;;;6.26;66.20;94423.28;2616984;54;20557;-83
2022/04/21 06:22:09;;;;;;;4.20;3.87;;;;;;;5.99;63.29;94336.31;2619194;47;20842;-85
2022/04/21 06:24:39;;;;;;;4.60;3.23;;;;;;;5.54;65.30;94313.88;2617252;54;20153;-83
2022/04/21 06:27:08;;;;;;;4.43;3.10;;;;;;;5.75;68.33;94357.66;2616290;47;20172;-85
2022/04/21 06:32:19;;;;;;;4.43;3.40;;;;;;;5.39;66.00;94342.69;2615113;47;20691;-84
2022/04/21 06:34:48;;;;;;;4.37;4.00;;;;;;;6.85;67.00;94434.25;2616104;54;20153;-83
2022/04/21 06:37:24;;;;;;;3.60;3.40;;;;;;;5.77;64.35;94363.38;2615286;54;20242;-84
2022/04/21 06:40:01;;;;;;;5.00;4.70;;;;;;;5.72;66.22;94326.69;2616150;54;20166;-82
2022/04/21 06:42:35;;;;;;;3.37;3.17;;;;;;;5.55;62.64;94259.16;2616275;54;20176;-84
2022/04/21 06:51:19;;;;;;;3.77;3.47;;;;;;;7.54;68.50;94320.84;2615033;47;20188;-85
2022/04/21 06:53:53;;;;;;;5.13;4.73;;;;;;;7.30;65.78;94318.53;2615934;54;20160;-83
2022/04/21 06:56:22;;;;;;;3.77;3.47;;;;;;;7.55;62.05;94421.63;2615317;54;20203;-81
2022/04/21 06:59:08;;;;;;;3.70;3.13;;;;;;;7.26;63.67;94273.28;2614368;47;20171;-81
2022/04/21 07:01:37;;;;;;;4.33;3.40;;;;;;;6.51;63.11;94351.19;2614720;54;20169;-83
2022/04/21 07:04:09;;;;;;;3.63;3.30;;;;;;;7.16;63.17;94343.31;2615490;47;20700;-83
2022/04/21 07:06:42;;;;;;;4.03;3.80;;;;;;;7.43;63.50;94328.91;2614582;54;20251;-82
